De Witt, Missouri
Current Conditions -  °F | °C
As of 11:35 PM on Tuesday 21 Oct 2014 (Local Time) from KVER Reporting Station
Haze Haze  
Wind Chill: 52°   Ceiling: 500
Heat Index: 52°   Visibility: 0.75mi
Dew Point: 43°   Wind: 7mph
Humidity: 71%   Direction: 90°E
Pressure: 30.17"   Gusts: NA
Location:  39.38°N, 93.22°W
Report Text: KVER 220435Z AUTO 09006KT 3/4SM HZ VV005 11/06 A3017 RMK AO2 T01120061
Loading
Personal Weather Stations






























Interactive Weather Map
Tropical Storm Tracking
New forecast layout! Learn more

10-Day Weather Forecast

Advertisements
Track Severe Weather on mobile